sensor_id;sensor_type;location;lat;lon;timestamp;P1;durP1;ratioP1;P2;durP2;ratioP2
23496;SDS011;11925;48.122;11.560;2023-06-22T00:00:38;10.65;;;5.38;;
23496;SDS011;11925;48.122;11.560;2023-06-22T00:03:09;8.80;;;4.90;;
23496;SDS011;11925;48.122;11.560;2023-06-22T00:05:39;8.25;;;4.30;;
23496;SDS011;11925;48.122;11.560;2023-06-22T00:08:07;8.90;;;4.38;;
23496;SDS011;11925;48.122;11.560;2023-06-22T00:10:36;11.73;;;4.60;;
23496;SDS011;11925;48.122;11.560;2023-06-22T00:13:04;9.85;;;4.82;;
23496;SDS011;11925;48.122;11.560;2023-06-22T00:15:35;8.73;;;3.90;;
23496;SDS011;11925;48.122;11.560;2023-06-22T00:18:04;9.02;;;4.32;;
23496;SDS011;11925;48.122;11.560;2023-06-22T00:20:33;6.25;;;3.50;;
23496;SDS011;11925;48.122;11.560;2023-06-22T00:23:04;6.55;;;4.00;;
23496;SDS011;11925;48.122;11.560;2023-06-22T00:25:35;8.95;;;4.53;;
23496;SDS011;11925;48.122;11.560;2023-06-22T00:28:04;9.00;;;4.43;;
23496;SDS011;11925;48.122;11.560;2023-06-22T00:30:35;8.77;;;3.90;;
23496;SDS011;11925;48.122;11.560;2023-06-22T00:33:04;9.68;;;3.90;;
23496;SDS011;11925;48.122;11.560;2023-06-22T00:35:34;9.68;;;3.88;;
23496;SDS011;11925;48.122;11.560;2023-06-22T00:38:02;8.80;;;3.60;;
23496;SDS011;11925;48.122;11.560;2023-06-22T00:40:31;7.95;;;4.43;;
23496;SDS011;11925;48.122;11.560;2023-06-22T00:43:01;9.32;;;3.92;;
23496;SDS011;11925;48.122;11.560;2023-06-22T00:45:30;9.93;;;3.75;;
23496;SDS011;11925;48.122;11.560;2023-06-22T00:48:00;8.57;;;3.25;;
23496;SDS011;11925;48.122;11.560;2023-06-22T00:50:30;8.90;;;3.92;;
23496;SDS011;11925;48.122;11.560;2023-06-22T00:53:01;7.93;;;3.97;;
23496;SDS011;11925;48.122;11.560;2023-06-22T00:55:35;6.68;;;4.05;;
23496;SDS011;11925;48.122;11.560;2023-06-22T00:58:05;6.30;;;3.45;;
23496;SDS011;11925;48.122;11.560;2023-06-22T01:00:37;8.90;;;3.55;;
23496;SDS011;11925;48.122;11.560;2023-06-22T01:03:07;12.27;;;4.07;;
23496;SDS011;11925;48.122;11.560;2023-06-22T01:05:37;7.75;;;4.13;;
23496;SDS011;11925;48.122;11.560;2023-06-22T01:08:13;8.52;;;4.28;;
23496;SDS011;11925;48.122;11.560;2023-06-22T01:10:51;6.32;;;3.90;;
23496;SDS011;11925;48.122;11.560;2023-06-22T01:13:25;8.25;;;3.97;;
23496;SDS011;11925;48.122;11.560;2023-06-22T01:16:00;5.78;;;3.45;;
23496;SDS011;11925;48.122;11.560;2023-06-22T01:18:32;8.68;;;4.25;;
23496;SDS011;11925;48.122;11.560;2023-06-22T01:21:04;5.65;;;3.50;;
23496;SDS011;11925;48.122;11.560;2023-06-22T01:23:39;9.63;;;3.83;;
23496;SDS011;11925;48.122;11.560;2023-06-22T01:26:20;7.03;;;3.50;;
23496;SDS011;11925;48.122;11.560;2023-06-22T01:29:03;7.03;;;3.50;;
23496;SDS011;11925;48.122;11.560;2023-06-22T01:31:33;7.97;;;3.67;;
23496;SDS011;11925;48.122;11.560;2023-06-22T01:34:03;6.88;;;3.20;;
23496;SDS011;11925;48.122;11.560;2023-06-22T01:36:34;6.68;;;3.20;;
23496;SDS011;11925;48.122;11.560;2023-06-22T01:39:03;7.72;;;3.40;;
23496;SDS011;11925;48.122;11.560;2023-06-22T01:41:34;6.35;;;2.90;;
23496;SDS011;11925;48.122;11.560;2023-06-22T01:44:06;8.75;;;4.28;;
23496;SDS011;11925;48.122;11.560;2023-06-22T01:46:36;6.47;;;3.15;;
23496;SDS011;11925;48.122;11.560;2023-06-22T01:49:06;8.38;;;4.07;;
23496;SDS011;11925;48.122;11.560;2023-06-22T01:51:35;7.55;;;4.00;;
23496;SDS011;11925;48.122;11.560;2023-06-22T01:54:05;8.25;;;3.30;;
23496;SDS011;11925;48.122;11.560;2023-06-22T01:56:34;7.97;;;3.45;;
23496;SDS011;11925;48.122;11.560;2023-06-22T01:59:04;6.35;;;3.10;;
23496;SDS011;11925;48.122;11.560;2023-06-22T02:01:41;6.97;;;3.03;;
23496;SDS011;11925;48.122;11.560;2023-06-22T02:04:13;6.65;;;3.40;;
23496;SDS011;11925;48.122;11.560;2023-06-22T02:06:47;9.27;;;3.42;;
23496;SDS011;11925;48.122;11.560;2023-06-22T02:09:18;10.15;;;3.60;;
23496;SDS011;11925;48.122;11.560;2023-06-22T02:11:50;8.50;;;3.40;;
23496;SDS011;11925;48.122;11.560;2023-06-22T02:14:23;5.90;;;3.10;;
23496;SDS011;11925;48.122;11.560;2023-06-22T02:21:54;5.50;;;3.22;;
23496;SDS011;11925;48.122;11.560;2023-06-22T02:24:22;7.50;;;3.58;;
23496;SDS011;11925;48.122;11.560;2023-06-22T02:26:53;6.32;;;3.22;;
23496;SDS011;11925;48.122;11.560;2023-06-22T02:29:23;7.22;;;3.55;;
23496;SDS011;11925;48.122;11.560;2023-06-22T02:31:51;8.27;;;3.38;;
23496;SDS011;11925;48.122;11.560;2023-06-22T02:34:20;6.72;;;3.60;;
23496;SDS011;11925;48.122;11.560;2023-06-22T02:36:50;5.38;;;3.63;;
23496;SDS011;11925;48.122;11.560;2023-06-22T02:39:19;7.93;;;3.53;;
23496;SDS011;11925;48.122;11.560;2023-06-22T02:41:48;5.80;;;3.15;;
23496;SDS011;11925;48.122;11.560;2023-06-22T02:44:17;10.07;;;4.07;;
23496;SDS011;11925;48.122;11.560;2023-06-22T02:46:48;6.53;;;3.90;;
23496;SDS011;11925;48.122;11.560;2023-06-22T02:49:17;7.18;;;3.85;;
23496;SDS011;11925;48.122;11.560;2023-06-22T02:51:46;7.03;;;3.65;;
23496;SDS011;11925;48.122;11.560;2023-06-22T02:54:18;8.13;;;4.03;;
23496;SDS011;11925;48.122;11.560;2023-06-22T02:56:49;7.57;;;3.92;;
23496;SDS011;11925;48.122;11.560;2023-06-22T02:59:20;10.63;;;4.00;;
23496;SDS011;11925;48.122;11.560;2023-06-22T03:01:58;7.32;;;4.20;;
23496;SDS011;11925;48.122;11.560;2023-06-22T03:04:30;7.18;;;3.60;;
23496;SDS011;11925;48.122;11.560;2023-06-22T03:06:59;9.45;;;3.90;;
23496;SDS011;11925;48.122;11.560;2023-06-22T03:09:29;8.43;;;3.63;;
23496;SDS011;11925;48.122;11.560;2023-06-22T03:11:58;9.07;;;4.28;;
23496;SDS011;11925;48.122;11.560;2023-06-22T03:14:34;6.78;;;4.07;;
23496;SDS011;11925;48.122;11.560;2023-06-22T03:17:05;11.30;;;4.47;;
23496;SDS011;11925;48.122;11.560;2023-06-22T03:19:36;10.23;;;4.45;;
23496;SDS011;11925;48.122;11.560;2023-06-22T03:22:04;5.47;;;3.63;;
23496;SDS011;11925;48.122;11.560;2023-06-22T03:24:33;7.75;;;3.63;;
23496;SDS011;11925;48.122;11.560;2023-06-22T03:27:04;10.50;;;4.05;;
23496;SDS011;11925;48.122;11.560;2023-06-22T03:29:33;8.15;;;4.15;;
23496;SDS011;11925;48.122;11.560;2023-06-22T03:32:02;8.85;;;4.00;;
23496;SDS011;11925;48.122;11.560;2023-06-22T03:34:33;5.40;;;3.55;;
23496;SDS011;11925;48.122;11.560;2023-06-22T03:37:03;8.27;;;4.10;;
23496;SDS011;11925;48.122;11.560;2023-06-22T03:39:32;7.28;;;4.30;;
23496;SDS011;11925;48.122;11.560;2023-06-22T03:42:00;8.30;;;4.32;;
23496;SDS011;11925;48.122;11.560;2023-06-22T03:44:29;6.78;;;4.10;;
23496;SDS011;11925;48.122;11.560;2023-06-22T03:46:57;10.23;;;4.28;;
23496;SDS011;11925;48.122;11.560;2023-06-22T03:49:27;8.32;;;3.80;;
23496;SDS011;11925;48.122;11.560;2023-06-22T03:51:55;5.95;;;3.50;;
23496;SDS011;11925;48.122;11.560;2023-06-22T03:54:24;9.40;;;4.35;;
23496;SDS011;11925;48.122;11.560;2023-06-22T03:56:52;7.85;;;4.15;;
23496;SDS011;11925;48.122;11.560;2023-06-22T03:59:20;8.88;;;4.43;;
23496;SDS011;11925;48.122;11.560;2023-06-22T04:01:48;6.93;;;3.92;;
23496;SDS011;11925;48.122;11.560;2023-06-22T04:04:17;6.97;;;4.35;;
23496;SDS011;11925;48.122;11.560;2023-06-22T04:06:47;8.82;;;3.83;;
23496;SDS011;11925;48.122;11.560;2023-06-22T04:09:15;8.52;;;4.22;;
23496;SDS011;11925;48.122;11.560;2023-06-22T04:11:44;8.00;;;4.20;;
23496;SDS011;11925;48.122;11.560;2023-06-22T04:14:12;6.07;;;4.00;;
23496;SDS011;11925;48.122;11.560;2023-06-22T04:16:40;8.27;;;4.22;;
23496;SDS011;11925;48.122;11.560;2023-06-22T04:19:09;7.18;;;4.13;;
23496;SDS011;11925;48.122;11.560;2023-06-22T04:21:42;9.00;;;4.40;;
23496;SDS011;11925;48.122;11.560;2023-06-22T04:24:13;8.77;;;4.43;;
23496;SDS011;11925;48.122;11.560;2023-06-22T04:26:41;11.10;;;4.70;;
23496;SDS011;11925;48.122;11.560;2023-06-22T04:29:12;8.20;;;4.50;;
23496;SDS011;11925;48.122;11.560;2023-06-22T04:31:40;11.90;;;4.85;;
23496;SDS011;11925;48.122;11.560;2023-06-22T04:34:09;9.75;;;4.63;;
23496;SDS011;11925;48.122;11.560;2023-06-22T04:36:38;8.70;;;4.30;;
23496;SDS011;11925;48.122;11.560;2023-06-22T04:39:08;7.03;;;4.63;;
23496;SDS011;11925;48.122;11.560;2023-06-22T04:41:39;7.43;;;3.92;;
23496;SDS011;11925;48.122;11.560;2023-06-22T04:44:11;9.77;;;4.82;;
23496;SDS011;11925;48.122;11.560;2023-06-22T04:46:39;9.27;;;4.88;;
23496;SDS011;11925;48.122;11.560;2023-06-22T04:49:08;9.70;;;5.63;;
23496;SDS011;11925;48.122;11.560;2023-06-22T04:51:38;8.43;;;4.45;;
23496;SDS011;11925;48.122;11.560;2023-06-22T04:54:08;9.63;;;4.73;;
23496;SDS011;11925;48.122;11.560;2023-06-22T04:56:38;7.75;;;4.47;;
23496;SDS011;11925;48.122;11.560;2023-06-22T04:59:07;10.98;;;4.65;;
23496;SDS011;11925;48.122;11.560;2023-06-22T05:01:39;9.50;;;4.60;;
23496;SDS011;11925;48.122;11.560;2023-06-22T05:04:08;8.90;;;4.75;;
23496;SDS011;11925;48.122;11.560;2023-06-22T05:06:36;8.35;;;4.55;;
23496;SDS011;11925;48.122;11.560;2023-06-22T05:09:06;8.15;;;4.50;;
23496;SDS011;11925;48.122;11.560;2023-06-22T05:11:35;7.93;;;4.50;;
23496;SDS011;11925;48.122;11.560;2023-06-22T05:14:05;10.00;;;4.95;;
23496;SDS011;11925;48.122;11.560;2023-06-22T05:16:34;9.02;;;4.50;;
23496;SDS011;11925;48.122;11.560;2023-06-22T05:19:02;8.15;;;4.65;;
23496;SDS011;11925;48.122;11.560;2023-06-22T05:21:31;7.93;;;4.20;;
23496;SDS011;11925;48.122;11.560;2023-06-22T05:23:59;7.40;;;4.15;;
23496;SDS011;11925;48.122;11.560;2023-06-22T05:26:29;11.30;;;4.95;;
23496;SDS011;11925;48.122;11.560;2023-06-22T05:28:58;7.95;;;4.80;;
23496;SDS011;11925;48.122;11.560;2023-06-22T05:31:28;8.05;;;4.53;;
23496;SDS011;11925;48.122;11.560;2023-06-22T05:33:57;8.65;;;5.30;;
23496;SDS011;11925;48.122;11.560;2023-06-22T05:36:26;11.07;;;5.97;;
23496;SDS011;11925;48.122;11.560;2023-06-22T05:38:55;7.82;;;5.28;;
23496;SDS011;11925;48.122;11.560;2023-06-22T05:41:24;9.32;;;5.13;;
23496;SDS011;11925;48.122;11.560;2023-06-22T05:43:53;7.70;;;5.38;;
23496;SDS011;11925;48.122;11.560;2023-06-22T05:46:21;9.45;;;5.22;;
23496;SDS011;11925;48.122;11.560;2023-06-22T05:48:51;9.15;;;5.72;;
23496;SDS011;11925;48.122;11.560;2023-06-22T05:51:20;10.15;;;5.22;;
23496;SDS011;11925;48.122;11.560;2023-06-22T05:53:48;12.18;;;6.07;;
23496;SDS011;11925;48.122;11.560;2023-06-22T05:56:17;11.32;;;5.90;;
23496;SDS011;11925;48.122;11.560;2023-06-22T05:58:45;11.02;;;5.65;;
23496;SDS011;11925;48.122;11.560;2023-06-22T06:01:14;13.80;;;6.15;;
23496;SDS011;11925;48.122;11.560;2023-06-22T06:03:43;10.63;;;5.88;;
23496;SDS011;11925;48.122;11.560;2023-06-22T06:06:13;11.52;;;6.03;;
23496;SDS011;11925;48.122;11.560;2023-06-22T06:08:41;12.40;;;5.85;;
23496;SDS011;11925;48.122;11.560;2023-06-22T06:11:09;10.52;;;6.22;;
23496;SDS011;11925;48.122;11.560;2023-06-22T06:13:38;10.13;;;6.38;;
23496;SDS011;11925;48.122;11.560;2023-06-22T06:16:06;11.98;;;7.00;;
23496;SDS011;11925;48.122;11.560;2023-06-22T06:18:34;11.57;;;6.40;;
23496;SDS011;11925;48.122;11.560;2023-06-22T06:21:04;13.63;;;6.43;;
23496;SDS011;11925;48.122;11.560;2023-06-22T06:23:33;11.05;;;6.82;;
23496;SDS011;11925;48.122;11.560;2023-06-22T06:26:02;15.25;;;6.80;;
23496;SDS011;11925;48.122;11.560;2023-06-22T06:28:34;13.27;;;6.43;;
23496;SDS011;11925;48.122;11.560;2023-06-22T06:31:02;13.13;;;6.82;;
23496;SDS011;11925;48.122;11.560;2023-06-22T06:33:33;14.70;;;7.45;;
23496;SDS011;11925;48.122;11.560;2023-06-22T06:36:02;14.52;;;7.63;;
23496;SDS011;11925;48.122;11.560;2023-06-22T06:38:31;12.50;;;6.63;;
23496;SDS011;11925;48.122;11.560;2023-06-22T06:41:00;11.43;;;6.30;;
23496;SDS011;11925;48.122;11.560;2023-06-22T06:43:29;9.88;;;5.57;;
23496;SDS011;11925;48.122;11.560;2023-06-22T06:45:57;10.68;;;6.28;;
23496;SDS011;11925;48.122;11.560;2023-06-22T06:48:25;12.55;;;6.43;;
23496;SDS011;11925;48.122;11.560;2023-06-22T06:50:54;11.95;;;5.95;;
23496;SDS011;11925;48.122;11.560;2023-06-22T06:53:22;9.98;;;6.15;;
23496;SDS011;11925;48.122;11.560;2023-06-22T06:55:51;12.48;;;7.25;;
23496;SDS011;11925;48.122;11.560;2023-06-22T06:58:20;10.95;;;7.03;;
23496;SDS011;11925;48.122;11.560;2023-06-22T07:00:49;10.75;;;7.40;;
23496;SDS011;11925;48.122;11.560;2023-06-22T07:03:17;12.40;;;6.78;;
23496;SDS011;11925;48.122;11.560;2023-06-22T07:05:46;9.70;;;6.53;;
23496;SDS011;11925;48.122;11.560;2023-06-22T07:08:14;11.52;;;6.65;;
23496;SDS011;11925;48.122;11.560;2023-06-22T07:10:42;12.63;;;6.90;;
23496;SDS011;11925;48.122;11.560;2023-06-22T07:13:11;12.38;;;7.05;;
23496;SDS011;11925;48.122;11.560;2023-06-22T07:15:41;11.68;;;6.68;;
23496;SDS011;11925;48.122;11.560;2023-06-22T07:18:09;13.35;;;6.75;;
23496;SDS011;11925;48.122;11.560;2023-06-22T07:20:37;10.75;;;7.00;;
23496;SDS011;11925;48.122;11.560;2023-06-22T07:23:07;12.15;;;6.95;;
23496;SDS011;11925;48.122;11.560;2023-06-22T07:25:36;11.80;;;6.45;;
23496;SDS011;11925;48.122;11.560;2023-06-22T07:28:05;12.95;;;6.85;;
23496;SDS011;11925;48.122;11.560;2023-06-22T07:30:34;14.98;;;7.45;;
23496;SDS011;11925;48.122;11.560;2023-06-22T07:33:04;18.38;;;7.80;;
23496;SDS011;11925;48.122;11.560;2023-06-22T07:35:35;11.48;;;7.30;;
23496;SDS011;11925;48.122;11.560;2023-06-22T07:38:03;10.60;;;6.95;;
23496;SDS011;11925;48.122;11.560;2023-06-22T07:40:32;14.05;;;7.60;;
23496;SDS011;11925;48.122;11.560;2023-06-22T07:43:01;13.60;;;7.28;;
23496;SDS011;11925;48.122;11.560;2023-06-22T07:45:30;14.23;;;7.53;;
23496;SDS011;11925;48.122;11.560;2023-06-22T07:48:02;11.93;;;7.18;;
23496;SDS011;11925;48.122;11.560;2023-06-22T07:50:32;11.45;;;7.35;;
23496;SDS011;11925;48.122;11.560;2023-06-22T07:53:00;12.77;;;6.95;;
23496;SDS011;11925;48.122;11.560;2023-06-22T07:55:28;10.85;;;7.00;;
23496;SDS011;11925;48.122;11.560;2023-06-22T07:57:57;11.57;;;6.80;;
23496;SDS011;11925;48.122;11.560;2023-06-22T08:00:25;12.55;;;7.70;;
23496;SDS011;11925;48.122;11.560;2023-06-22T08:02:54;10.48;;;6.55;;
23496;SDS011;11925;48.122;11.560;2023-06-22T08:05:23;15.32;;;7.55;;
23496;SDS011;11925;48.122;11.560;2023-06-22T08:07:52;12.88;;;7.70;;
23496;SDS011;11925;48.122;11.560;2023-06-22T08:10:21;11.82;;;7.22;;
23496;SDS011;11925;48.122;11.560;2023-06-22T08:12:50;12.43;;;7.40;;
23496;SDS011;11925;48.122;11.560;2023-06-22T08:15:19;13.55;;;7.07;;
23496;SDS011;11925;48.122;11.560;2023-06-22T08:17:48;11.68;;;6.63;;
23496;SDS011;11925;48.122;11.560;2023-06-22T08:20:18;10.52;;;7.25;;
23496;SDS011;11925;48.122;11.560;2023-06-22T08:22:48;12.40;;;7.60;;
23496;SDS011;11925;48.122;11.560;2023-06-22T08:25:17;15.52;;;8.15;;
23496;SDS011;11925;48.122;11.560;2023-06-22T08:27:46;12.85;;;7.55;;
23496;SDS011;11925;48.122;11.560;2023-06-22T08:30:15;12.60;;;7.30;;
23496;SDS011;11925;48.122;11.560;2023-06-22T08:32:44;12.25;;;7.78;;
23496;SDS011;11925;48.122;11.560;2023-06-22T08:35:13;15.45;;;7.88;;
23496;SDS011;11925;48.122;11.560;2023-06-22T08:37:41;14.45;;;7.60;;
23496;SDS011;11925;48.122;11.560;2023-06-22T08:40:10;11.55;;;7.30;;
23496;SDS011;11925;48.122;11.560;2023-06-22T08:42:41;13.90;;;7.80;;
23496;SDS011;11925;48.122;11.560;2023-06-22T08:45:10;13.88;;;7.40;;
23496;SDS011;11925;48.122;11.560;2023-06-22T08:47:38;11.75;;;7.47;;
23496;SDS011;11925;48.122;11.560;2023-06-22T08:50:08;16.05;;;8.18;;
23496;SDS011;11925;48.122;11.560;2023-06-22T08:52:37;12.88;;;8.02;;
23496;SDS011;11925;48.122;11.560;2023-06-22T08:55:08;14.70;;;7.13;;
23496;SDS011;11925;48.122;11.560;2023-06-22T08:57:37;13.75;;;8.00;;
23496;SDS011;11925;48.122;11.560;2023-06-22T09:00:08;14.13;;;7.60;;
23496;SDS011;11925;48.122;11.560;2023-06-22T09:02:43;11.27;;;7.65;;
23496;SDS011;11925;48.122;11.560;2023-06-22T09:05:11;13.80;;;7.80;;
23496;SDS011;11925;48.122;11.560;2023-06-22T09:07:40;13.10;;;7.57;;
23496;SDS011;11925;48.122;11.560;2023-06-22T09:10:10;15.15;;;8.48;;
23496;SDS011;11925;48.122;11.560;2023-06-22T09:12:39;11.23;;;7.50;;
23496;SDS011;11925;48.122;11.560;2023-06-22T09:15:09;10.82;;;7.45;;
23496;SDS011;11925;48.122;11.560;2023-06-22T09:17:42;16.48;;;7.85;;
23496;SDS011;11925;48.122;11.560;2023-06-22T09:20:13;14.50;;;8.20;;
23496;SDS011;11925;48.122;11.560;2023-06-22T09:22:42;14.23;;;7.45;;
23496;SDS011;11925;48.122;11.560;2023-06-22T09:25:10;14.70;;;7.80;;
23496;SDS011;11925;48.122;11.560;2023-06-22T09:27:39;11.73;;;7.50;;
23496;SDS011;11925;48.122;11.560;2023-06-22T09:30:09;16.08;;;8.25;;
23496;SDS011;11925;48.122;11.560;2023-06-22T09:32:39;14.15;;;7.63;;
23496;SDS011;11925;48.122;11.560;2023-06-22T09:35:08;11.88;;;7.40;;
23496;SDS011;11925;48.122;11.560;2023-06-22T09:37:39;14.60;;;8.13;;
23496;SDS011;11925;48.122;11.560;2023-06-22T09:40:08;14.45;;;7.78;;
23496;SDS011;11925;48.122;11.560;2023-06-22T09:42:39;16.88;;;7.90;;
23496;SDS011;11925;48.122;11.560;2023-06-22T09:45:10;12.77;;;7.00;;
23496;SDS011;11925;48.122;11.560;2023-06-22T09:47:38;13.05;;;7.47;;
23496;SDS011;11925;48.122;11.560;2023-06-22T09:50:08;15.40;;;7.93;;
23496;SDS011;11925;48.122;11.560;2023-06-22T09:52:36;10.90;;;7.43;;
23496;SDS011;11925;48.122;11.560;2023-06-22T09:55:08;13.05;;;7.85;;
23496;SDS011;11925;48.122;11.560;2023-06-22T09:57:36;15.55;;;7.72;;
23496;SDS011;11925;48.122;11.560;2023-06-22T10:00:05;12.85;;;7.47;;
23496;SDS011;11925;48.122;11.560;2023-06-22T10:02:39;15.20;;;7.72;;
23496;SDS011;11925;48.122;11.560;2023-06-22T10:05:09;13.13;;;8.25;;
23496;SDS011;11925;48.122;11.560;2023-06-22T10:07:38;15.57;;;8.32;;
23496;SDS011;11925;48.122;11.560;2023-06-22T10:10:10;13.13;;;7.93;;
23496;SDS011;11925;48.122;11.560;2023-06-22T10:12:43;13.90;;;8.07;;
23496;SDS011;11925;48.122;11.560;2023-06-22T10:15:13;13.85;;;8.05;;
23496;SDS011;11925;48.122;11.560;2023-06-22T10:17:44;16.02;;;8.90;;
23496;SDS011;11925;48.122;11.560;2023-06-22T10:20:12;19.30;;;9.15;;
23496;SDS011;11925;48.122;11.560;2023-06-22T10:22:42;15.02;;;8.82;;
23496;SDS011;11925;48.122;11.560;2023-06-22T10:25:13;16.38;;;9.13;;
23496;SDS011;11925;48.122;11.560;2023-06-22T10:27:42;17.10;;;9.25;;
23496;SDS011;11925;48.122;11.560;2023-06-22T10:30:11;16.58;;;8.55;;
23496;SDS011;11925;48.122;11.560;2023-06-22T10:32:41;18.83;;;8.98;;
23496;SDS011;11925;48.122;11.560;2023-06-22T10:35:12;16.63;;;8.93;;
23496;SDS011;11925;48.122;11.560;2023-06-22T10:37:43;18.70;;;9.95;;
23496;SDS011;11925;48.122;11.560;2023-06-22T10:40:12;23.40;;;9.65;;
23496;SDS011;11925;48.122;11.560;2023-06-22T10:42:41;16.00;;;8.80;;
23496;SDS011;11925;48.122;11.560;2023-06-22T10:45:10;17.58;;;10.02;;
23496;SDS011;11925;48.122;11.560;2023-06-22T10:47:40;13.20;;;8.75;;
23496;SDS011;11925;48.122;11.560;2023-06-22T10:50:09;21.58;;;9.40;;
23496;SDS011;11925;48.122;11.560;2023-06-22T10:52:39;17.27;;;9.48;;
23496;SDS011;11925;48.122;11.560;2023-06-22T10:55:09;17.52;;;9.70;;
23496;SDS011;11925;48.122;11.560;2023-06-22T10:57:37;16.25;;;9.50;;
23496;SDS011;11925;48.122;11.560;2023-06-22T11:00:10;18.33;;;9.02;;
23496;SDS011;11925;48.122;11.560;2023-06-22T11:02:39;16.23;;;9.35;;
23496;SDS011;11925;48.122;11.560;2023-06-22T11:05:08;18.77;;;9.00;;
23496;SDS011;11925;48.122;11.560;2023-06-22T11:07:38;21.35;;;9.32;;
23496;SDS011;11925;48.122;11.560;2023-06-22T11:10:09;18.02;;;9.10;;
23496;SDS011;11925;48.122;11.560;2023-06-22T11:12:38;13.55;;;8.48;;
23496;SDS011;11925;48.122;11.560;2023-06-22T11:15:06;15.20;;;8.90;;
23496;SDS011;11925;48.122;11.560;2023-06-22T11:17:36;14.38;;;8.45;;
23496;SDS011;11925;48.122;11.560;2023-06-22T11:20:05;13.98;;;8.75;;
23496;SDS011;11925;48.122;11.560;2023-06-22T11:22:39;16.30;;;8.80;;
23496;SDS011;11925;48.122;11.560;2023-06-22T11:25:08;13.35;;;8.50;;
23496;SDS011;11925;48.122;11.560;2023-06-22T11:27:38;15.00;;;8.82;;
23496;SDS011;11925;48.122;11.560;2023-06-22T11:30:07;15.40;;;8.82;;
23496;SDS011;11925;48.122;11.560;2023-06-22T11:32:36;18.13;;;8.75;;
23496;SDS011;11925;48.122;11.560;2023-06-22T11:35:05;17.40;;;9.05;;
23496;SDS011;11925;48.122;11.560;2023-06-22T11:37:35;16.08;;;9.25;;
23496;SDS011;11925;48.122;11.560;2023-06-22T11:40:06;16.00;;;8.00;;
23496;SDS011;11925;48.122;11.560;2023-06-22T11:42:36;15.02;;;9.23;;
23496;SDS011;11925;48.122;11.560;2023-06-22T11:45:04;13.63;;;8.75;;
23496;SDS011;11925;48.122;11.560;2023-06-22T11:47:34;17.27;;;7.85;;
23496;SDS011;11925;48.122;11.560;2023-06-22T11:50:03;17.45;;;8.75;;
23496;SDS011;11925;48.122;11.560;2023-06-22T11:52:33;14.20;;;8.27;;
23496;SDS011;11925;48.122;11.560;2023-06-22T11:55:02;16.60;;;8.57;;
23496;SDS011;11925;48.122;11.560;2023-06-22T11:57:34;13.55;;;8.27;;
23496;SDS011;11925;48.122;11.560;2023-06-22T12:00:04;15.57;;;8.45;;
23496;SDS011;11925;48.122;11.560;2023-06-22T12:02:43;15.63;;;8.20;;
23496;SDS011;11925;48.122;11.560;2023-06-22T12:05:12;19.55;;;8.38;;
23496;SDS011;11925;48.122;11.560;2023-06-22T12:07:41;15.35;;;8.57;;
23496;SDS011;11925;48.122;11.560;2023-06-22T12:10:09;13.68;;;7.85;;
23496;SDS011;11925;48.122;11.560;2023-06-22T12:12:39;15.43;;;9.00;;
23496;SDS011;11925;48.122;11.560;2023-06-22T12:15:08;17.65;;;8.38;;
23496;SDS011;11925;48.122;11.560;2023-06-22T12:17:37;14.93;;;7.30;;
23496;SDS011;11925;48.122;11.560;2023-06-22T12:20:06;13.18;;;7.00;;
23496;SDS011;11925;48.122;11.560;2023-06-22T12:22:36;13.75;;;8.52;;
23496;SDS011;11925;48.122;11.560;2023-06-22T12:25:05;16.45;;;8.45;;
23496;SDS011;11925;48.122;11.560;2023-06-22T12:27:34;15.40;;;8.30;;
23496;SDS011;11925;48.122;11.560;2023-06-22T12:30:05;18.58;;;8.32;;
23496;SDS011;11925;48.122;11.560;2023-06-22T12:32:34;17.63;;;9.00;;
23496;SDS011;11925;48.122;11.560;2023-06-22T12:35:02;20.25;;;8.52;;
23496;SDS011;11925;48.122;11.560;2023-06-22T12:37:31;18.58;;;9.27;;
23496;SDS011;11925;48.122;11.560;2023-06-22T12:40:00;14.48;;;8.45;;
23496;SDS011;11925;48.122;11.560;2023-06-22T12:42:30;15.00;;;8.35;;
23496;SDS011;11925;48.122;11.560;2023-06-22T12:44:58;16.48;;;7.97;;
23496;SDS011;11925;48.122;11.560;2023-06-22T12:47:28;17.65;;;8.57;;
23496;SDS011;11925;48.122;11.560;2023-06-22T12:49:56;20.70;;;9.02;;
23496;SDS011;11925;48.122;11.560;2023-06-22T12:52:25;14.65;;;8.43;;
23496;SDS011;11925;48.122;11.560;2023-06-22T12:54:53;15.25;;;7.90;;
23496;SDS011;11925;48.122;11.560;2023-06-22T12:57:21;16.52;;;8.68;;
23496;SDS011;11925;48.122;11.560;2023-06-22T12:59:50;15.38;;;8.50;;
23496;SDS011;11925;48.122;11.560;2023-06-22T13:02:19;14.52;;;8.38;;
23496;SDS011;11925;48.122;11.560;2023-06-22T13:04:48;15.13;;;8.40;;
23496;SDS011;11925;48.122;11.560;2023-06-22T13:07:17;15.63;;;8.02;;
23496;SDS011;11925;48.122;11.560;2023-06-22T13:09:49;15.32;;;8.23;;
23496;SDS011;11925;48.122;11.560;2023-06-22T13:12:19;16.00;;;8.65;;
23496;SDS011;11925;48.122;11.560;2023-06-22T13:14:48;15.90;;;8.23;;
23496;SDS011;11925;48.122;11.560;2023-06-22T13:17:16;15.32;;;8.73;;
23496;SDS011;11925;48.122;11.560;2023-06-22T13:19:45;14.38;;;8.75;;
23496;SDS011;11925;48.122;11.560;2023-06-22T13:22:27;16.95;;;8.40;;
23496;SDS011;11925;48.122;11.560;2023-06-22T13:24:57;18.35;;;8.52;;
23496;SDS011;11925;48.122;11.560;2023-06-22T13:27:26;17.10;;;8.60;;
23496;SDS011;11925;48.122;11.560;2023-06-22T13:29:54;13.77;;;8.02;;
23496;SDS011;11925;48.122;11.560;2023-06-22T13:32:23;15.77;;;8.35;;
23496;SDS011;11925;48.122;11.560;2023-06-22T13:34:52;15.80;;;8.25;;
23496;SDS011;11925;48.122;11.560;2023-06-22T13:37:21;10.13;;;7.47;;
23496;SDS011;11925;48.122;11.560;2023-06-22T13:39:51;18.75;;;8.48;;
23496;SDS011;11925;48.122;11.560;2023-06-22T13:42:19;16.02;;;8.40;;
23496;SDS011;11925;48.122;11.560;2023-06-22T13:44:48;15.75;;;8.15;;
23496;SDS011;11925;48.122;11.560;2023-06-22T13:47:16;11.63;;;7.22;;
23496;SDS011;11925;48.122;11.560;2023-06-22T13:49:44;14.60;;;7.78;;
23496;SDS011;11925;48.122;11.560;2023-06-22T13:52:13;13.60;;;7.70;;
23496;SDS011;11925;48.122;11.560;2023-06-22T13:54:41;16.42;;;7.82;;
23496;SDS011;11925;48.122;11.560;2023-06-22T13:57:11;14.88;;;7.53;;
23496;SDS011;11925;48.122;11.560;2023-06-22T13:59:39;11.98;;;7.80;;
23496;SDS011;11925;48.122;11.560;2023-06-22T14:02:08;14.43;;;7.50;;
23496;SDS011;11925;48.122;11.560;2023-06-22T14:04:37;14.68;;;8.48;;
23496;SDS011;11925;48.122;11.560;2023-06-22T14:07:06;13.68;;;7.63;;
23496;SDS011;11925;48.122;11.560;2023-06-22T14:09:34;14.60;;;7.50;;
23496;SDS011;11925;48.122;11.560;2023-06-22T14:12:03;13.90;;;7.15;;
23496;SDS011;11925;48.122;11.560;2023-06-22T14:14:33;14.63;;;7.82;;
23496;SDS011;11925;48.122;11.560;2023-06-22T14:17:04;99.50;;;60.75;;
23496;SDS011;11925;48.122;11.560;2023-06-22T14:19:33;121.10;;;76.72;;
23496;SDS011;11925;48.122;11.560;2023-06-22T14:22:01;139.15;;;87.10;;
23496;SDS011;11925;48.122;11.560;2023-06-22T14:24:32;165.80;;;99.65;;
23496;SDS011;11925;48.122;11.560;2023-06-22T14:27:01;291.30;;;175.05;;
23496;SDS011;11925;48.122;11.560;2023-06-22T14:29:29;217.80;;;126.00;;
23496;SDS011;11925;48.122;11.560;2023-06-22T14:32:00;83.32;;;44.72;;
23496;SDS011;11925;48.122;11.560;2023-06-22T14:34:29;62.22;;;35.70;;
23496;SDS011;11925;48.122;11.560;2023-06-22T14:36:57;41.20;;;21.25;;
23496;SDS011;11925;48.122;11.560;2023-06-22T14:39:25;41.65;;;23.70;;
23496;SDS011;11925;48.122;11.560;2023-06-22T14:41:54;38.10;;;23.02;;
23496;SDS011;11925;48.122;11.560;2023-06-22T14:44:22;41.63;;;24.00;;